KPSO

Stevens Field Airport

Pagosa Springs, Colorado, USA
METAR KPSO 241335Z AUTO 00000KT 10SM CLR 11/M06 A3032 RMK AO2 T01141062
Observed Flight Rules
May-24 @ 13:35 UTC (13 minutes ago) Visual Flight Rules
Visibility Clouds
10 miles
  • Clear skies
Temperatures Readings
Current 11°C / 52°F
Dewpoint -6°C / 21°F
Humidity 30%
Altimeter 30.32" Hg
Pressure 1027 hPa
Elevation 2334
METAR KPSO 241335Z AUTO 00000KT 10SM CLR 11/M06 A3032 RMK AO2 T01141062
Observed Flight Rules
May-24 @ 13:35 UTC
(13 minutes ago)
VFR
Clouds
  • Clear skies
Temperature Dewpoint
11°C / 52°F -6°C / 21°F
Humidity Altimeter Pressure
30% 30.32" Hg 1027 hPa